createdAt,value
2023-03-11T00:00:18.123Z,2.68
2023-03-11T00:02:46.471Z,2.33
2023-03-11T00:05:17.139Z,2.55
2023-03-11T00:07:43.783Z,2.35
2023-03-11T00:10:23.586Z,2.30
2023-03-11T00:12:50.116Z,2.23
2023-03-11T00:15:17.048Z,2.35
2023-03-11T00:17:43.601Z,2.44
2023-03-11T00:20:19.400Z,2.52
2023-03-11T00:22:46.207Z,2.45
2023-03-11T00:25:13.464Z,2.56
2023-03-11T00:27:40.060Z,2.38
2023-03-11T00:30:07.280Z,2.18
2023-03-11T00:32:33.888Z,2.41
2023-03-11T00:35:00.433Z,2.29
2023-03-11T00:37:26.970Z,2.39
2023-03-11T00:39:53.549Z,2.33
2023-03-11T00:42:20.054Z,2.23
2023-03-11T00:44:46.624Z,2.29
2023-03-11T00:47:13.468Z,2.16
2023-03-11T00:49:40.161Z,2.18
2023-03-11T00:52:06.870Z,2.09
2023-03-11T00:54:33.424Z,2.34
2023-03-11T00:56:59.962Z,2.02
2023-03-11T00:59:26.527Z,2.04
2023-03-11T01:01:53.088Z,1.99
2023-03-11T01:04:19.639Z,2.16
2023-03-11T01:06:46.214Z,2.26
2023-03-11T01:09:13.150Z,2.05
2023-03-11T01:11:39.724Z,2.28
2023-03-11T01:14:06.258Z,2.11
2023-03-11T01:16:32.871Z,2.00
2023-03-11T01:18:59.431Z,1.86
2023-03-11T01:21:25.947Z,2.11
2023-03-11T01:23:52.781Z,2.05
2023-03-11T01:26:19.359Z,2.35
2023-03-11T01:28:45.912Z,2.01
2023-03-11T01:31:12.947Z,1.87
2023-03-11T01:33:40.288Z,2.31
2023-03-11T01:36:07.286Z,2.01
2023-03-11T01:38:33.840Z,1.81
2023-03-11T01:41:00.421Z,1.82
2023-03-11T01:43:41.133Z,2.01
2023-03-11T01:46:19.217Z,1.93
2023-03-11T01:48:55.453Z,1.68
2023-03-11T01:51:33.598Z,1.80
2023-03-11T01:54:06.815Z,1.79
2023-03-11T01:56:35.464Z,1.93
2023-03-11T01:59:02.931Z,1.75
2023-03-11T02:01:30.366Z,1.72
2023-03-11T02:03:57.875Z,1.83
2023-03-11T02:06:26.018Z,1.87
2023-03-11T02:08:52.555Z,1.69
2023-03-11T02:11:26.748Z,1.70
2023-03-11T02:13:58.944Z,1.86
2023-03-11T02:16:25.753Z,1.61
2023-03-11T02:18:52.960Z,1.65
2023-03-11T02:21:29.685Z,1.71
2023-03-11T02:24:15.327Z,1.59
2023-03-11T02:26:58.184Z,1.77
2023-03-11T02:29:27.943Z,1.76
2023-03-11T02:31:56.724Z,1.77
2023-03-11T02:34:34.539Z,1.77
2023-03-11T02:37:07.121Z,1.77
2023-03-11T02:39:45.841Z,1.73
2023-03-11T02:42:19.473Z,1.82
2023-03-11T02:45:09.649Z,1.60
2023-03-11T02:47:39.259Z,1.54
2023-03-11T02:50:07.453Z,1.56
2023-03-11T02:52:35.656Z,1.55
2023-03-11T02:55:02.748Z,1.59
2023-03-11T02:57:29.564Z,1.78
2023-03-11T02:59:56.135Z,1.67
2023-03-11T03:02:22.907Z,1.51
2023-03-11T03:04:49.409Z,1.58
2023-03-11T03:07:16.156Z,1.64
2023-03-11T03:09:42.707Z,1.48
2023-03-11T03:12:09.286Z,1.66
2023-03-11T03:14:35.826Z,1.54
2023-03-11T03:17:02.589Z,1.46
2023-03-11T03:19:29.216Z,1.40
2023-03-11T03:21:55.817Z,1.57
2023-03-11T03:24:22.341Z,1.45
2023-03-11T03:26:48.866Z,1.41
2023-03-11T03:29:15.391Z,1.44
2023-03-11T03:31:41.960Z,1.65
2023-03-11T03:34:08.697Z,1.52
2023-03-11T03:36:35.217Z,1.61
2023-03-11T03:39:01.980Z,1.63
2023-03-11T03:41:28.642Z,1.47
2023-03-11T03:43:55.303Z,1.64
2023-03-11T03:46:22.449Z,1.52
2023-03-11T03:48:49.037Z,1.42
2023-03-11T03:51:16.875Z,1.49
2023-03-11T03:53:43.918Z,1.50
2023-03-11T03:56:14.092Z,1.73
2023-03-11T03:58:40.724Z,1.83
2023-03-11T04:01:08.577Z,1.56
2023-03-11T04:03:35.971Z,1.51
2023-03-11T04:06:25.519Z,1.54
2023-03-11T04:08:54.612Z,1.62
2023-03-11T04:11:22.109Z,1.62
2023-03-11T04:13:48.706Z,1.53
2023-03-11T04:16:19.956Z,1.83
2023-03-11T04:18:47.427Z,1.65
2023-03-11T04:21:14.258Z,1.64
2023-03-11T04:23:41.052Z,1.74
2023-03-11T04:26:07.717Z,1.41
2023-03-11T04:28:34.310Z,1.55
2023-03-11T04:31:01.017Z,1.43
2023-03-11T04:33:27.850Z,1.58
2023-03-11T04:35:54.429Z,1.56
2023-03-11T04:38:21.137Z,1.54
2023-03-11T04:40:47.772Z,1.53
2023-03-11T04:43:14.496Z,1.38
2023-03-11T04:45:44.845Z,1.53
2023-03-11T04:48:11.406Z,1.71
2023-03-11T04:50:37.980Z,1.60
2023-03-11T04:53:04.543Z,1.53
2023-03-11T04:55:31.179Z,1.59
2023-03-11T04:57:57.777Z,1.41
2023-03-11T05:00:25.058Z,1.54
2023-03-11T05:02:52.210Z,1.50
2023-03-11T05:05:21.661Z,1.36
2023-03-11T05:07:50.297Z,1.48
2023-03-11T05:10:22.323Z,1.49
2023-03-11T05:12:52.428Z,1.49
2023-03-11T05:15:19.605Z,1.60
2023-03-11T05:17:46.226Z,1.42
2023-03-11T05:20:15.736Z,1.43
2023-03-11T05:22:42.712Z,1.49
2023-03-11T05:25:09.503Z,1.58
2023-03-11T05:27:36.113Z,1.34
2023-03-11T05:30:02.955Z,1.42
2023-03-11T05:32:29.538Z,1.51
2023-03-11T05:34:56.260Z,1.68
2023-03-11T05:37:22.781Z,1.48
2023-03-11T05:39:49.458Z,1.59
2023-03-11T05:42:16.064Z,1.57
2023-03-11T05:44:42.746Z,1.69
2023-03-11T05:47:09.333Z,1.47
2023-03-11T05:49:35.902Z,1.36
2023-03-11T05:52:02.538Z,1.57
2023-03-11T05:54:29.167Z,1.51
2023-03-11T05:56:55.921Z,1.28
2023-03-11T05:59:23.330Z,1.40
2023-03-11T06:01:49.882Z,1.41
2023-03-11T06:04:16.681Z,1.38
2023-03-11T06:06:43.307Z,1.52
2023-03-11T06:09:14.216Z,1.55
2023-03-11T06:11:41.845Z,1.33
2023-03-11T06:14:12.889Z,1.57
2023-03-11T06:16:40.104Z,1.61
2023-03-11T06:19:06.961Z,1.61
2023-03-11T06:21:33.537Z,1.66
2023-03-11T06:24:00.188Z,1.85
2023-03-11T06:26:26.741Z,1.64
2023-03-11T06:28:53.442Z,1.83
2023-03-11T06:31:28.156Z,1.82
2023-03-11T06:33:55.911Z,1.86
2023-03-11T06:36:24.453Z,1.95
2023-03-11T06:38:55.008Z,1.90
2023-03-11T06:41:21.704Z,1.68
2023-03-11T06:43:48.430Z,1.73
2023-03-11T06:46:21.205Z,2.00
2023-03-11T06:48:52.184Z,1.75
2023-03-11T06:51:20.028Z,2.27
2023-03-11T06:53:53.494Z,2.21
2023-03-11T06:56:22.390Z,2.04
2023-03-11T06:58:49.309Z,2.28
2023-03-11T07:01:19.118Z,2.13
2023-03-11T07:03:50.266Z,2.30
2023-03-11T07:06:20.359Z,2.27
2023-03-11T07:08:48.746Z,2.39
2023-03-11T07:11:23.786Z,2.44
2023-03-11T07:13:51.203Z,2.12
2023-03-11T07:16:21.037Z,2.20
2023-03-11T07:18:49.960Z,2.25
2023-03-11T07:21:20.063Z,2.28
2023-03-11T07:23:47.671Z,1.93
2023-03-11T07:26:15.937Z,1.83
2023-03-11T07:28:42.538Z,1.92
2023-03-11T07:31:14.577Z,2.09
2023-03-11T07:33:41.233Z,2.19
2023-03-11T07:36:13.295Z,1.94
2023-03-11T07:38:41.855Z,2.13
2023-03-11T07:41:11.244Z,2.12
2023-03-11T07:43:39.244Z,1.93
2023-03-11T07:46:16.501Z,2.14
2023-03-11T07:48:43.187Z,2.02
2023-03-11T07:51:15.654Z,1.90
2023-03-11T07:53:43.262Z,1.79
2023-03-11T07:56:12.272Z,1.93
2023-03-11T07:58:39.709Z,1.92
2023-03-11T08:01:11.854Z,1.99
2023-03-11T08:03:39.081Z,1.94
2023-03-11T08:06:17.149Z,2.14
2023-03-11T08:08:44.416Z,2.12
2023-03-11T08:11:13.222Z,1.92
2023-03-11T08:13:41.648Z,1.85
2023-03-11T08:16:10.192Z,1.96
2023-03-11T08:18:37.121Z,1.65
2023-03-11T08:21:09.286Z,1.68
2023-03-11T08:23:35.942Z,1.88
2023-03-11T08:26:09.325Z,1.67
2023-03-11T08:28:37.267Z,1.92
2023-03-11T08:31:22.229Z,1.77
2023-03-11T08:33:50.313Z,1.91
2023-03-11T08:36:18.650Z,1.78
2023-03-11T08:38:45.977Z,1.74
2023-03-11T08:41:13.195Z,1.82
2023-03-11T08:43:40.057Z,1.81
2023-03-11T08:46:07.225Z,1.90
2023-03-11T08:48:36.271Z,1.79
2023-03-11T08:51:08.687Z,1.68
2023-03-11T08:53:35.333Z,1.78
2023-03-11T08:56:01.946Z,1.64
2023-03-11T08:58:29.212Z,1.63
2023-03-11T09:00:55.913Z,1.35
2023-03-11T09:03:22.647Z,1.34
2023-03-11T09:05:49.583Z,1.12
2023-03-11T09:08:16.206Z,1.21
2023-03-11T09:10:42.764Z,1.36
2023-03-11T09:13:11.661Z,1.31
2023-03-11T09:15:38.860Z,1.13
2023-03-11T09:18:05.789Z,1.17
2023-03-11T09:20:32.312Z,1.24
2023-03-11T09:22:59.009Z,1.31
2023-03-11T09:25:25.751Z,1.12
2023-03-11T09:27:52.345Z,1.37
2023-03-11T09:30:18.934Z,1.53
2023-03-11T09:32:45.609Z,1.30
2023-03-11T09:35:12.287Z,1.50
2023-03-11T09:37:38.854Z,1.31
2023-03-11T09:40:06.180Z,1.28
2023-03-11T09:42:45.767Z,1.17
2023-03-11T09:45:16.686Z,1.28
2023-03-11T09:48:28.582Z,1.15
2023-03-11T09:51:15.066Z,1.53
2023-03-11T09:53:47.183Z,1.41
2023-03-11T09:56:20.096Z,1.49
2023-03-11T09:58:55.333Z,1.38
2023-03-11T10:01:28.958Z,1.32
2023-03-11T10:04:02.147Z,1.64
2023-03-11T10:06:30.317Z,1.51
2023-03-11T10:09:26.974Z,1.30
2023-03-11T10:11:53.430Z,1.40
2023-03-11T10:14:47.610Z,1.33
2023-03-11T10:17:29.406Z,1.29
2023-03-11T10:20:16.322Z,1.63
2023-03-11T10:23:02.717Z,1.57
2023-03-11T10:25:36.435Z,1.36
2023-03-11T10:28:12.503Z,1.60
2023-03-11T10:30:47.067Z,1.60
2023-03-11T10:33:44.866Z,1.54
2023-03-11T10:36:39.641Z,1.52
2023-03-11T10:39:06.690Z,1.44
2023-03-11T10:41:35.814Z,1.55
2023-03-11T10:44:14.038Z,1.79
2023-03-11T10:46:44.740Z,1.54
2023-03-11T10:49:16.736Z,1.46
2023-03-11T10:51:55.825Z,1.69
2023-03-11T10:54:29.984Z,1.82
2023-03-11T10:57:02.770Z,1.59
2023-03-11T10:59:48.243Z,1.65
2023-03-11T11:02:38.282Z,1.82
2023-03-11T11:05:33.291Z,1.63
2023-03-11T11:08:25.184Z,1.53
2023-03-11T11:11:04.169Z,1.70
2023-03-11T11:13:34.475Z,1.67
2023-03-11T11:16:03.814Z,1.60
2023-03-11T11:19:02.622Z,1.57
2023-03-11T11:21:34.073Z,1.98
2023-03-11T11:24:23.369Z,1.67
2023-03-11T11:27:11.640Z,1.73
2023-03-11T11:29:38.559Z,1.43
2023-03-11T11:32:24.668Z,1.68
2023-03-11T11:35:00.189Z,1.66
2023-03-11T11:37:33.740Z,1.75
2023-03-11T11:40:11.648Z,1.60
2023-03-11T11:42:41.143Z,1.38
2023-03-11T11:45:14.571Z,1.57
2023-03-11T11:47:48.299Z,1.30
2023-03-11T11:50:26.055Z,1.40
2023-03-11T11:53:10.544Z,1.14
2023-03-11T11:55:46.756Z,1.35
2023-03-11T11:58:13.339Z,1.12
2023-03-11T12:00:53.807Z,1.39
2023-03-11T12:03:35.629Z,1.67
2023-03-11T12:06:30.181Z,1.71
2023-03-11T12:09:24.118Z,1.47
2023-03-11T12:12:04.978Z,1.56
2023-03-11T12:14:50.958Z,1.64
2023-03-11T12:17:20.550Z,1.55
2023-03-11T12:19:54.358Z,1.61
2023-03-11T12:22:59.742Z,1.58
2023-03-11T12:25:34.486Z,1.45
2023-03-11T12:28:16.031Z,1.56
2023-03-11T12:30:52.293Z,1.43
2023-03-11T12:33:25.102Z,1.52
2023-03-11T12:35:58.428Z,1.57
2023-03-11T12:38:33.448Z,1.51
2023-03-11T12:41:14.692Z,1.43
2023-03-11T12:43:41.213Z,1.57
2023-03-11T12:46:10.773Z,2.07
2023-03-11T12:48:50.174Z,1.47
2023-03-11T12:51:39.056Z,1.84
2023-03-11T12:54:31.876Z,1.84
2023-03-11T12:57:16.162Z,1.70
2023-03-11T13:00:06.721Z,1.52
2023-03-11T13:03:02.945Z,1.86
2023-03-11T13:05:53.748Z,1.68
2023-03-11T13:08:32.899Z,1.52
2023-03-11T13:10:59.597Z,1.57
2023-03-11T13:13:42.484Z,1.59
2023-03-11T13:16:15.165Z,1.58
2023-03-11T13:18:47.646Z,1.34
2023-03-11T13:21:38.098Z,1.22
2023-03-11T13:24:22.838Z,1.29
2023-03-11T13:27:11.682Z,1.28
2023-03-11T13:30:06.243Z,1.34
2023-03-11T13:33:00.938Z,1.19
2023-03-11T13:35:46.300Z,1.23
2023-03-11T13:38:22.091Z,1.18
2023-03-11T13:40:51.615Z,1.16
2023-03-11T13:43:24.436Z,1.39
2023-03-11T13:46:03.667Z,1.23
2023-03-11T13:48:37.857Z,1.19
2023-03-11T13:51:14.380Z,1.51
2023-03-11T13:53:49.561Z,1.13
2023-03-11T13:56:25.627Z,1.23
2023-03-11T13:58:52.270Z,1.16
2023-03-11T14:01:19.610Z,1.24
2023-03-11T14:03:47.964Z,1.22
2023-03-11T14:06:20.007Z,1.24
2023-03-11T14:08:57.748Z,1.30
2023-03-11T14:11:29.449Z,1.44
2023-03-11T14:13:56.484Z,1.20
2023-03-11T14:16:43.888Z,1.40
2023-03-11T14:19:17.382Z,1.29
2023-03-11T14:21:49.905Z,1.46
2023-03-11T14:24:26.363Z,1.28
2023-03-11T14:26:56.569Z,1.16
2023-03-11T14:29:39.109Z,1.05
2023-03-11T14:32:28.732Z,1.27
2023-03-11T14:34:56.838Z,1.05
2023-03-11T14:37:38.422Z,1.32
2023-03-11T14:40:26.627Z,1.02
2023-03-11T14:42:58.427Z,1.13
2023-03-11T14:45:29.903Z,1.31
2023-03-11T14:48:29.808Z,1.08
2023-03-11T14:51:00.447Z,1.45
2023-03-11T14:53:45.817Z,1.45
2023-03-11T14:56:21.937Z,1.49
2023-03-11T14:59:08.398Z,1.50
2023-03-11T15:01:41.076Z,1.41
2023-03-11T15:04:28.533Z,1.49
2023-03-11T15:06:56.354Z,1.40
2023-03-11T15:09:25.053Z,1.46
2023-03-11T15:11:55.417Z,1.41
2023-03-11T15:14:28.787Z,1.32
2023-03-11T15:17:43.529Z,1.42
2023-03-11T15:20:25.519Z,1.41
2023-03-11T15:23:00.626Z,1.37
2023-03-11T15:25:33.292Z,1.53
2023-03-11T15:28:14.402Z,1.41
2023-03-11T15:30:41.206Z,1.41
2023-03-11T15:33:22.597Z,1.63
2023-03-11T15:35:50.192Z,1.72
2023-03-11T15:38:31.400Z,1.48
2023-03-11T15:41:03.650Z,1.60
2023-03-11T15:43:46.628Z,1.34
2023-03-11T15:46:13.376Z,1.68
2023-03-11T15:48:39.956Z,1.67
2023-03-11T15:51:06.515Z,1.69
2023-03-11T15:53:33.132Z,1.59
2023-03-11T15:56:11.722Z,1.58
2023-03-11T15:58:38.944Z,1.46
2023-03-11T16:01:05.614Z,1.33
2023-03-11T16:03:32.244Z,1.46
2023-03-11T16:05:58.826Z,1.31
2023-03-11T16:08:25.471Z,1.44
2023-03-11T16:10:52.123Z,1.24
2023-03-11T16:13:18.644Z,1.18
2023-03-11T16:15:46.970Z,1.26
2023-03-11T16:18:13.830Z,1.44
2023-03-11T16:20:47.836Z,1.44
2023-03-11T16:23:25.226Z,1.45
2023-03-11T16:25:58.685Z,1.45
2023-03-11T16:28:25.282Z,1.67
2023-03-11T16:30:51.960Z,1.76
2023-03-11T16:33:18.650Z,1.60
2023-03-11T16:35:46.119Z,1.51
2023-03-11T16:38:13.117Z,1.53
2023-03-11T16:40:39.884Z,1.49
2023-03-11T16:43:12.591Z,1.88
2023-03-11T16:45:39.499Z,2.07
2023-03-11T16:48:06.503Z,2.05
2023-03-11T16:50:34.498Z,1.66
2023-03-11T16:53:02.841Z,1.88
2023-03-11T16:55:30.608Z,2.01
2023-03-11T16:57:59.907Z,2.24
2023-03-11T17:00:27.124Z,2.46
2023-03-11T17:02:54.080Z,2.36
2023-03-11T17:05:21.548Z,2.57
2023-03-11T17:07:52.194Z,2.66
2023-03-11T17:10:18.955Z,2.60
2023-03-11T17:12:45.476Z,2.73
2023-03-11T17:15:12.051Z,3.11
2023-03-11T17:17:38.658Z,3.21
2023-03-11T17:20:07.002Z,3.28
2023-03-11T17:22:33.698Z,3.43
2023-03-11T17:25:00.396Z,3.42
2023-03-11T17:27:32.221Z,3.86
2023-03-11T17:29:59.963Z,4.19
2023-03-11T17:32:26.738Z,4.28
2023-03-11T17:34:53.372Z,4.34
2023-03-11T17:37:20.210Z,4.23
2023-03-11T17:39:46.838Z,4.33
2023-03-11T17:42:13.479Z,4.37
2023-03-11T17:44:51.015Z,4.61
2023-03-11T17:47:20.137Z,4.54
2023-03-11T17:49:49.229Z,4.68
2023-03-11T17:52:15.830Z,4.42
2023-03-11T17:54:42.500Z,4.72
2023-03-11T17:57:09.065Z,5.03
2023-03-11T17:59:35.618Z,5.17
2023-03-11T18:02:02.268Z,5.50
2023-03-11T18:04:29.028Z,5.34
2023-03-11T18:06:56.203Z,5.25
2023-03-11T18:09:22.777Z,5.92
2023-03-11T18:11:49.629Z,6.32
2023-03-11T18:14:16.284Z,6.79
2023-03-11T18:16:42.853Z,7.85
2023-03-11T18:19:09.409Z,8.62
2023-03-11T18:21:35.999Z,9.09
2023-03-11T18:24:02.615Z,8.98
2023-03-11T18:26:30.718Z,8.75
2023-03-11T18:28:59.629Z,8.52
2023-03-11T18:31:28.720Z,7.83
2023-03-11T18:33:59.053Z,7.59
2023-03-11T18:36:28.792Z,6.80
2023-03-11T18:38:58.000Z,6.14
2023-03-11T18:41:26.315Z,6.36
2023-03-11T18:43:59.000Z,7.45
2023-03-11T18:46:28.410Z,8.94
2023-03-11T18:48:59.276Z,12.65
2023-03-11T18:51:31.000Z,14.04
2023-03-11T18:53:59.002Z,13.88
2023-03-11T18:56:26.971Z,14.31
2023-03-11T18:58:55.290Z,13.98
2023-03-11T19:01:22.020Z,13.77
2023-03-11T19:03:52.160Z,14.11
2023-03-11T19:06:19.167Z,14.64
2023-03-11T19:08:52.055Z,13.40
2023-03-11T19:11:20.991Z,13.12
2023-03-11T19:13:48.354Z,13.60
2023-03-11T19:16:22.392Z,13.02
2023-03-11T19:18:51.159Z,14.39
2023-03-11T19:21:18.141Z,14.84
2023-03-11T19:23:45.608Z,14.82
2023-03-11T19:26:13.476Z,14.35
2023-03-11T19:28:40.068Z,13.73
2023-03-11T19:31:06.919Z,13.57
2023-03-11T19:33:33.893Z,13.26
2023-03-11T19:36:03.681Z,12.99
2023-03-11T19:38:31.122Z,13.52
2023-03-11T19:41:10.309Z,13.86
2023-03-11T19:43:37.198Z,13.81
2023-03-11T19:46:05.296Z,14.30
2023-03-11T19:48:32.805Z,16.64
2023-03-11T19:50:59.443Z,18.42
2023-03-11T19:53:26.781Z,19.16
2023-03-11T19:55:56.016Z,19.78
2023-03-11T19:58:25.092Z,21.02
2023-03-11T20:00:52.069Z,21.21
2023-03-11T20:03:21.722Z,21.08
2023-03-11T20:05:49.930Z,20.19
2023-03-11T20:08:19.813Z,20.74
2023-03-11T20:10:48.859Z,20.29
2023-03-11T20:13:17.692Z,23.12
2023-03-11T20:15:44.405Z,26.99
2023-03-11T20:18:11.183Z,30.37
2023-03-11T20:20:39.406Z,33.00
2023-03-11T20:23:06.403Z,36.34
2023-03-11T20:25:33.113Z,39.07
2023-03-11T20:28:00.927Z,40.79
2023-03-11T20:30:28.895Z,43.08
2023-03-11T20:32:56.077Z,44.72
2023-03-11T20:35:22.981Z,47.36
2023-03-11T20:37:49.833Z,47.42
2023-03-11T20:40:18.394Z,47.41
2023-03-11T20:42:47.225Z,47.32
2023-03-11T20:45:21.836Z,46.81
2023-03-11T20:47:50.423Z,43.55
2023-03-11T20:50:17.504Z,41.14
2023-03-11T20:52:44.412Z,40.08
2023-03-11T20:55:12.279Z,37.85
2023-03-11T20:57:39.781Z,35.92
2023-03-11T21:00:11.283Z,35.68
2023-03-11T21:02:39.955Z,35.31
2023-03-11T21:05:08.382Z,34.85
2023-03-11T21:07:35.778Z,35.99
2023-03-11T21:10:05.500Z,39.62
2023-03-11T21:12:32.281Z,40.93
2023-03-11T21:14:58.951Z,40.01
2023-03-11T21:17:25.753Z,38.68
2023-03-11T21:19:52.350Z,37.48
2023-03-11T21:22:19.088Z,35.94
2023-03-11T21:24:45.835Z,36.10
2023-03-11T21:27:12.427Z,33.95
2023-03-11T21:29:39.001Z,32.72
2023-03-11T21:32:05.915Z,33.01
2023-03-11T21:34:32.597Z,33.07
2023-03-11T21:36:59.189Z,33.62
2023-03-11T21:39:25.963Z,33.22
2023-03-11T21:41:54.698Z,33.67
2023-03-11T21:44:33.768Z,32.97
2023-03-11T21:47:00.417Z,33.19
2023-03-11T21:49:31.323Z,33.04
2023-03-11T21:51:59.124Z,32.43
2023-03-11T21:54:26.884Z,31.38
2023-03-11T21:56:54.047Z,30.24
2023-03-11T21:59:25.406Z,29.59
2023-03-11T22:01:52.433Z,30.02
2023-03-11T22:04:19.356Z,27.67
2023-03-11T22:06:46.145Z,26.90
2023-03-11T22:09:12.827Z,27.40
2023-03-11T22:11:39.587Z,26.25
2023-03-11T22:14:06.199Z,26.01
2023-03-11T22:16:41.697Z,26.35
2023-03-11T22:19:10.040Z,27.06
2023-03-11T22:21:36.929Z,27.33
2023-03-11T22:24:03.680Z,27.17
2023-03-11T22:26:30.313Z,26.74
2023-03-11T22:28:56.905Z,27.28
2023-03-11T22:31:23.584Z,26.13
2023-03-11T22:33:50.441Z,26.82
2023-03-11T22:36:17.067Z,28.31
2023-03-11T22:38:45.101Z,28.37
2023-03-11T22:41:13.719Z,27.63
2023-03-11T22:43:40.586Z,26.60
2023-03-11T22:46:07.352Z,26.43
2023-03-11T22:48:34.863Z,24.25
2023-03-11T22:51:02.178Z,23.69
2023-03-11T22:53:28.894Z,23.28
2023-03-11T22:55:55.714Z,23.04
2023-03-11T22:58:22.392Z,22.65
2023-03-11T23:00:49.306Z,22.61
2023-03-11T23:03:16.010Z,21.90
2023-03-11T23:05:43.182Z,22.48
2023-03-11T23:08:12.134Z,22.02
2023-03-11T23:10:44.506Z,21.63
2023-03-11T23:13:12.568Z,22.03
2023-03-11T23:15:44.552Z,21.79
2023-03-11T23:18:31.816Z,21.76
2023-03-11T23:20:58.421Z,22.29
2023-03-11T23:23:25.067Z,21.80
2023-03-11T23:25:51.654Z,21.98
2023-03-11T23:28:19.141Z,21.73
2023-03-11T23:30:45.716Z,21.77
2023-03-11T23:33:12.301Z,21.78
2023-03-11T23:35:42.758Z,21.84
2023-03-11T23:38:09.615Z,22.13
2023-03-11T23:40:36.269Z,21.53
2023-03-11T23:43:02.798Z,21.36
2023-03-11T23:45:29.302Z,21.39
2023-03-11T23:47:58.955Z,21.26
2023-03-11T23:50:25.513Z,22.62
2023-03-11T23:52:52.063Z,23.29
2023-03-11T23:55:18.735Z,23.33
2023-03-11T23:57:45.297Z,24.00
